sensor_id;sensor_type;location;lat;lon;timestamp;P1;durP1;ratioP1;P2;durP2;ratioP2
3967;SDS011;9221;42.646;23.380;2023-05-10T00:00:41;6.07;;;3.10;;
3967;SDS011;9221;42.646;23.380;2023-05-10T00:03:07;7.80;;;3.70;;
3967;SDS011;9221;42.646;23.380;2023-05-10T00:05:32;6.00;;;3.30;;
3967;SDS011;9221;42.646;23.380;2023-05-10T00:07:58;7.80;;;3.63;;
3967;SDS011;9221;42.646;23.380;2023-05-10T00:10:23;6.93;;;3.87;;
3967;SDS011;9221;42.646;23.380;2023-05-10T00:12:49;7.47;;;3.73;;
3967;SDS011;9221;42.646;23.380;2023-05-10T00:15:14;5.93;;;3.63;;
3967;SDS011;9221;42.646;23.380;2023-05-10T00:17:39;6.57;;;3.27;;
3967;SDS011;9221;42.646;23.380;2023-05-10T00:20:05;6.83;;;3.57;;
3967;SDS011;9221;42.646;23.380;2023-05-10T00:22:31;6.80;;;3.30;;
3967;SDS011;9221;42.646;23.380;2023-05-10T00:24:57;5.97;;;3.53;;
3967;SDS011;9221;42.646;23.380;2023-05-10T00:27:23;12.03;;;4.37;;
3967;SDS011;9221;42.646;23.380;2023-05-10T00:29:48;7.00;;;4.23;;
3967;SDS011;9221;42.646;23.380;2023-05-10T00:32:14;8.40;;;4.10;;
3967;SDS011;9221;42.646;23.380;2023-05-10T00:34:39;8.47;;;4.47;;
3967;SDS011;9221;42.646;23.380;2023-05-10T00:37:05;10.83;;;4.00;;
3967;SDS011;9221;42.646;23.380;2023-05-10T00:39:30;5.80;;;3.70;;
3967;SDS011;9221;42.646;23.380;2023-05-10T00:41:56;7.53;;;4.10;;
3967;SDS011;9221;42.646;23.380;2023-05-10T00:44:21;7.47;;;4.40;;
3967;SDS011;9221;42.646;23.380;2023-05-10T00:46:46;6.70;;;4.33;;
3967;SDS011;9221;42.646;23.380;2023-05-10T00:49:13;13.77;;;5.03;;
3967;SDS011;9221;42.646;23.380;2023-05-10T00:51:38;7.97;;;4.37;;
3967;SDS011;9221;42.646;23.380;2023-05-10T00:54:04;10.10;;;4.90;;
3967;SDS011;9221;42.646;23.380;2023-05-10T00:56:30;7.90;;;4.20;;
3967;SDS011;9221;42.646;23.380;2023-05-10T00:58:55;8.20;;;4.30;;
3967;SDS011;9221;42.646;23.380;2023-05-10T01:01:21;9.03;;;3.57;;
3967;SDS011;9221;42.646;23.380;2023-05-10T01:03:47;5.93;;;3.80;;
3967;SDS011;9221;42.646;23.380;2023-05-10T01:06:13;9.50;;;4.93;;
3967;SDS011;9221;42.646;23.380;2023-05-10T01:08:39;8.23;;;5.10;;
3967;SDS011;9221;42.646;23.380;2023-05-10T01:11:05;6.93;;;4.60;;
3967;SDS011;9221;42.646;23.380;2023-05-10T01:13:37;10.67;;;5.23;;
3967;SDS011;9221;42.646;23.380;2023-05-10T01:16:06;7.53;;;4.57;;
3967;SDS011;9221;42.646;23.380;2023-05-10T01:18:36;6.17;;;3.80;;
3967;SDS011;9221;42.646;23.380;2023-05-10T01:24:16;7.70;;;4.10;;
3967;SDS011;9221;42.646;23.380;2023-05-10T01:30:00;11.60;;;3.57;;
3967;SDS011;9221;42.646;23.380;2023-05-10T01:32:39;6.60;;;3.70;;
3967;SDS011;9221;42.646;23.380;2023-05-10T01:35:36;6.80;;;3.87;;
3967;SDS011;9221;42.646;23.380;2023-05-10T01:41:12;5.40;;;3.17;;
3967;SDS011;9221;42.646;23.380;2023-05-10T01:43:58;5.10;;;2.97;;
3967;SDS011;9221;42.646;23.380;2023-05-10T01:46:36;5.67;;;3.10;;
3967;SDS011;9221;42.646;23.380;2023-05-10T01:49:03;3.70;;;2.20;;
3967;SDS011;9221;42.646;23.380;2023-05-10T01:51:47;6.50;;;3.33;;
3967;SDS011;9221;42.646;23.380;2023-05-10T01:54:17;6.87;;;3.13;;
3967;SDS011;9221;42.646;23.380;2023-05-10T01:56:45;9.70;;;2.90;;
3967;SDS011;9221;42.646;23.380;2023-05-10T01:59:20;5.07;;;2.70;;
3967;SDS011;9221;42.646;23.380;2023-05-10T02:01:46;3.37;;;2.17;;
3967;SDS011;9221;42.646;23.380;2023-05-10T02:04:15;5.20;;;2.50;;
3967;SDS011;9221;42.646;23.380;2023-05-10T02:06:42;5.60;;;1.90;;
3967;SDS011;9221;42.646;23.380;2023-05-10T02:09:10;4.03;;;2.50;;
3967;SDS011;9221;42.646;23.380;2023-05-10T02:11:41;4.17;;;2.10;;
3967;SDS011;9221;42.646;23.380;2023-05-10T02:14:09;3.40;;;1.87;;
3967;SDS011;9221;42.646;23.380;2023-05-10T02:16:36;5.07;;;3.10;;
3967;SDS011;9221;42.646;23.380;2023-05-10T02:19:03;4.70;;;2.60;;
3967;SDS011;9221;42.646;23.380;2023-05-10T02:21:29;3.43;;;2.53;;
3967;SDS011;9221;42.646;23.380;2023-05-10T02:23:56;4.60;;;2.10;;
3967;SDS011;9221;42.646;23.380;2023-05-10T02:26:23;7.80;;;2.93;;
3967;SDS011;9221;42.646;23.380;2023-05-10T02:28:50;2.67;;;2.03;;
3967;SDS011;9221;42.646;23.380;2023-05-10T02:31:17;4.20;;;1.87;;
3967;SDS011;9221;42.646;23.380;2023-05-10T02:33:44;7.50;;;2.80;;
3967;SDS011;9221;42.646;23.380;2023-05-10T02:36:12;4.03;;;1.90;;
3967;SDS011;9221;42.646;23.380;2023-05-10T02:38:38;7.60;;;2.80;;
3967;SDS011;9221;42.646;23.380;2023-05-10T02:41:05;4.20;;;2.17;;
3967;SDS011;9221;42.646;23.380;2023-05-10T02:43:33;4.70;;;2.30;;
3967;SDS011;9221;42.646;23.380;2023-05-10T02:46:00;8.97;;;2.60;;
3967;SDS011;9221;42.646;23.380;2023-05-10T02:48:26;6.13;;;2.00;;
3967;SDS011;9221;42.646;23.380;2023-05-10T02:50:52;6.80;;;2.43;;
3967;SDS011;9221;42.646;23.380;2023-05-10T02:53:22;5.00;;;2.70;;
3967;SDS011;9221;42.646;23.380;2023-05-10T02:55:53;6.30;;;2.20;;
3967;SDS011;9221;42.646;23.380;2023-05-10T02:58:24;7.03;;;3.00;;
3967;SDS011;9221;42.646;23.380;2023-05-10T03:00:50;5.40;;;2.77;;
3967;SDS011;9221;42.646;23.380;2023-05-10T03:03:15;4.67;;;2.50;;
3967;SDS011;9221;42.646;23.380;2023-05-10T03:05:41;6.57;;;2.93;;
3967;SDS011;9221;42.646;23.380;2023-05-10T03:08:06;6.30;;;3.43;;
3967;SDS011;9221;42.646;23.380;2023-05-10T03:10:32;7.07;;;3.33;;
3967;SDS011;9221;42.646;23.380;2023-05-10T03:15:42;6.33;;;2.70;;
3967;SDS011;9221;42.646;23.380;2023-05-10T03:18:23;5.00;;;2.50;;
3967;SDS011;9221;42.646;23.380;2023-05-10T03:21:02;6.33;;;1.90;;
3967;SDS011;9221;42.646;23.380;2023-05-10T03:23:34;6.50;;;2.30;;
3967;SDS011;9221;42.646;23.380;2023-05-10T03:26:04;5.00;;;2.70;;
3967;SDS011;9221;42.646;23.380;2023-05-10T03:28:30;5.83;;;2.80;;
3967;SDS011;9221;42.646;23.380;2023-05-10T03:30:58;5.00;;;2.57;;
3967;SDS011;9221;42.646;23.380;2023-05-10T03:33:24;6.23;;;3.43;;
3967;SDS011;9221;42.646;23.380;2023-05-10T03:35:50;22.17;;;2.67;;
3967;SDS011;9221;42.646;23.380;2023-05-10T03:38:15;3.93;;;2.37;;
3967;SDS011;9221;42.646;23.380;2023-05-10T03:40:41;5.90;;;2.93;;
3967;SDS011;9221;42.646;23.380;2023-05-10T03:43:06;7.00;;;3.60;;
3967;SDS011;9221;42.646;23.380;2023-05-10T03:45:31;6.10;;;2.90;;
3967;SDS011;9221;42.646;23.380;2023-05-10T03:47:57;5.17;;;2.50;;
3967;SDS011;9221;42.646;23.380;2023-05-10T03:50:23;5.47;;;2.70;;
3967;SDS011;9221;42.646;23.380;2023-05-10T03:52:48;5.80;;;2.47;;
3967;SDS011;9221;42.646;23.380;2023-05-10T03:55:14;5.27;;;2.60;;
3967;SDS011;9221;42.646;23.380;2023-05-10T03:57:40;8.70;;;3.10;;
3967;SDS011;9221;42.646;23.380;2023-05-10T04:00:05;8.40;;;2.70;;
3967;SDS011;9221;42.646;23.380;2023-05-10T04:02:31;7.63;;;2.80;;
3967;SDS011;9221;42.646;23.380;2023-05-10T04:04:56;7.50;;;2.97;;
3967;SDS011;9221;42.646;23.380;2023-05-10T04:07:22;9.60;;;2.90;;
3967;SDS011;9221;42.646;23.380;2023-05-10T04:09:47;9.97;;;3.33;;
3967;SDS011;9221;42.646;23.380;2023-05-10T04:12:13;6.30;;;2.80;;
3967;SDS011;9221;42.646;23.380;2023-05-10T04:14:38;7.33;;;1.90;;
3967;SDS011;9221;42.646;23.380;2023-05-10T04:17:04;5.17;;;2.30;;
3967;SDS011;9221;42.646;23.380;2023-05-10T04:19:30;5.83;;;2.70;;
3967;SDS011;9221;42.646;23.380;2023-05-10T04:21:55;6.97;;;3.17;;
3967;SDS011;9221;42.646;23.380;2023-05-10T04:24:21;6.37;;;3.50;;
3967;SDS011;9221;42.646;23.380;2023-05-10T04:26:46;7.93;;;3.57;;
3967;SDS011;9221;42.646;23.380;2023-05-10T04:29:11;5.47;;;3.00;;
3967;SDS011;9221;42.646;23.380;2023-05-10T04:31:37;6.50;;;2.73;;
3967;SDS011;9221;42.646;23.380;2023-05-10T04:34:02;9.33;;;3.27;;
3967;SDS011;9221;42.646;23.380;2023-05-10T04:36:28;6.93;;;3.30;;
3967;SDS011;9221;42.646;23.380;2023-05-10T04:38:53;10.70;;;3.53;;
3967;SDS011;9221;42.646;23.380;2023-05-10T04:41:19;7.17;;;3.90;;
3967;SDS011;9221;42.646;23.380;2023-05-10T04:43:45;6.33;;;2.87;;
3967;SDS011;9221;42.646;23.380;2023-05-10T04:46:11;9.07;;;3.83;;
3967;SDS011;9221;42.646;23.380;2023-05-10T04:48:36;6.40;;;3.30;;
3967;SDS011;9221;42.646;23.380;2023-05-10T04:51:01;12.13;;;3.20;;
3967;SDS011;9221;42.646;23.380;2023-05-10T04:53:28;7.90;;;3.93;;
3967;SDS011;9221;42.646;23.380;2023-05-10T04:55:54;9.00;;;3.50;;
3967;SDS011;9221;42.646;23.380;2023-05-10T04:58:19;12.27;;;5.40;;
3967;SDS011;9221;42.646;23.380;2023-05-10T05:00:45;8.67;;;2.83;;
3967;SDS011;9221;42.646;23.380;2023-05-10T05:03:10;8.60;;;4.00;;
3967;SDS011;9221;42.646;23.380;2023-05-10T05:05:36;8.47;;;3.90;;
3967;SDS011;9221;42.646;23.380;2023-05-10T05:08:01;6.57;;;3.53;;
3967;SDS011;9221;42.646;23.380;2023-05-10T05:10:27;7.90;;;3.83;;
3967;SDS011;9221;42.646;23.380;2023-05-10T05:12:52;13.90;;;4.40;;
3967;SDS011;9221;42.646;23.380;2023-05-10T05:15:17;8.37;;;3.77;;
3967;SDS011;9221;42.646;23.380;2023-05-10T05:17:43;12.70;;;5.80;;
3967;SDS011;9221;42.646;23.380;2023-05-10T05:20:09;14.70;;;4.87;;
3967;SDS011;9221;42.646;23.380;2023-05-10T05:22:38;10.00;;;3.73;;
3967;SDS011;9221;42.646;23.380;2023-05-10T05:25:03;11.20;;;4.10;;
3967;SDS011;9221;42.646;23.380;2023-05-10T05:27:29;9.13;;;4.30;;
3967;SDS011;9221;42.646;23.380;2023-05-10T05:29:55;7.77;;;3.13;;
3967;SDS011;9221;42.646;23.380;2023-05-10T05:32:21;7.30;;;3.40;;
3967;SDS011;9221;42.646;23.380;2023-05-10T05:34:48;15.20;;;3.77;;
3967;SDS011;9221;42.646;23.380;2023-05-10T05:37:17;10.60;;;4.20;;
3967;SDS011;9221;42.646;23.380;2023-05-10T05:39:45;16.37;;;4.67;;
3967;SDS011;9221;42.646;23.380;2023-05-10T05:42:11;6.60;;;3.07;;
3967;SDS011;9221;42.646;23.380;2023-05-10T05:44:37;12.63;;;4.33;;
3967;SDS011;9221;42.646;23.380;2023-05-10T05:47:03;8.30;;;4.00;;
3967;SDS011;9221;42.646;23.380;2023-05-10T05:49:28;10.80;;;4.50;;
3967;SDS011;9221;42.646;23.380;2023-05-10T05:51:54;11.80;;;5.60;;
3967;SDS011;9221;42.646;23.380;2023-05-10T05:54:19;14.87;;;6.20;;
3967;SDS011;9221;42.646;23.380;2023-05-10T05:56:45;16.03;;;4.90;;
3967;SDS011;9221;42.646;23.380;2023-05-10T05:59:10;9.53;;;4.70;;
3967;SDS011;9221;42.646;23.380;2023-05-10T06:01:36;8.60;;;4.50;;
3967;SDS011;9221;42.646;23.380;2023-05-10T06:04:02;14.97;;;5.13;;
3967;SDS011;9221;42.646;23.380;2023-05-10T06:06:27;12.00;;;5.20;;
3967;SDS011;9221;42.646;23.380;2023-05-10T06:08:53;11.87;;;4.77;;
3967;SDS011;9221;42.646;23.380;2023-05-10T06:11:18;16.00;;;5.50;;
3967;SDS011;9221;42.646;23.380;2023-05-10T06:13:45;8.80;;;4.70;;
3967;SDS011;9221;42.646;23.380;2023-05-10T06:16:12;12.50;;;4.87;;
3967;SDS011;9221;42.646;23.380;2023-05-10T06:18:38;13.23;;;4.50;;
3967;SDS011;9221;42.646;23.380;2023-05-10T06:21:03;10.83;;;5.27;;
3967;SDS011;9221;42.646;23.380;2023-05-10T06:23:29;11.20;;;4.57;;
3967;SDS011;9221;42.646;23.380;2023-05-10T06:25:54;10.80;;;4.83;;
3967;SDS011;9221;42.646;23.380;2023-05-10T06:28:19;11.87;;;5.30;;
3967;SDS011;9221;42.646;23.380;2023-05-10T06:30:45;11.10;;;5.27;;
3967;SDS011;9221;42.646;23.380;2023-05-10T06:33:10;12.33;;;4.77;;
3967;SDS011;9221;42.646;23.380;2023-05-10T06:35:36;17.30;;;7.03;;
3967;SDS011;9221;42.646;23.380;2023-05-10T06:38:01;16.83;;;6.03;;
3967;SDS011;9221;42.646;23.380;2023-05-10T06:40:27;17.63;;;6.40;;
3967;SDS011;9221;42.646;23.380;2023-05-10T06:42:52;19.10;;;4.70;;
3967;SDS011;9221;42.646;23.380;2023-05-10T06:45:17;13.17;;;4.73;;
3967;SDS011;9221;42.646;23.380;2023-05-10T06:47:43;10.63;;;4.70;;
3967;SDS011;9221;42.646;23.380;2023-05-10T06:50:08;13.77;;;5.40;;
3967;SDS011;9221;42.646;23.380;2023-05-10T06:52:35;13.10;;;5.50;;
3967;SDS011;9221;42.646;23.380;2023-05-10T06:55:00;14.10;;;6.83;;
3967;SDS011;9221;42.646;23.380;2023-05-10T06:57:26;13.63;;;5.50;;
3967;SDS011;9221;42.646;23.380;2023-05-10T06:59:52;9.17;;;4.73;;
3967;SDS011;9221;42.646;23.380;2023-05-10T07:02:17;15.73;;;4.70;;
3967;SDS011;9221;42.646;23.380;2023-05-10T07:04:43;11.90;;;4.33;;
3967;SDS011;9221;42.646;23.380;2023-05-10T07:07:08;8.10;;;3.53;;
3967;SDS011;9221;42.646;23.380;2023-05-10T07:09:35;7.70;;;3.90;;
3967;SDS011;9221;42.646;23.380;2023-05-10T07:12:01;10.93;;;4.53;;
3967;SDS011;9221;42.646;23.380;2023-05-10T07:14:27;8.70;;;3.70;;
3967;SDS011;9221;42.646;23.380;2023-05-10T07:16:52;9.87;;;4.43;;
3967;SDS011;9221;42.646;23.380;2023-05-10T07:19:18;7.97;;;3.10;;
3967;SDS011;9221;42.646;23.380;2023-05-10T07:21:44;10.80;;;4.17;;
3967;SDS011;9221;42.646;23.380;2023-05-10T07:24:09;6.97;;;3.90;;
3967;SDS011;9221;42.646;23.380;2023-05-10T07:26:35;9.33;;;4.57;;
3967;SDS011;9221;42.646;23.380;2023-05-10T07:29:00;10.20;;;4.60;;
3967;SDS011;9221;42.646;23.380;2023-05-10T07:31:26;30.80;;;6.00;;
3967;SDS011;9221;42.646;23.380;2023-05-10T07:33:51;12.40;;;5.20;;
3967;SDS011;9221;42.646;23.380;2023-05-10T07:36:16;12.17;;;4.90;;
3967;SDS011;9221;42.646;23.380;2023-05-10T07:38:42;12.17;;;6.10;;
3967;SDS011;9221;42.646;23.380;2023-05-10T07:41:07;15.07;;;5.60;;
3967;SDS011;9221;42.646;23.380;2023-05-10T07:43:33;17.47;;;6.07;;
3967;SDS011;9221;42.646;23.380;2023-05-10T07:45:58;11.03;;;5.33;;
3967;SDS011;9221;42.646;23.380;2023-05-10T07:48:24;10.63;;;4.30;;
3967;SDS011;9221;42.646;23.380;2023-05-10T07:50:50;11.03;;;5.20;;
3967;SDS011;9221;42.646;23.380;2023-05-10T07:53:16;13.00;;;5.87;;
3967;SDS011;9221;42.646;23.380;2023-05-10T07:55:41;15.70;;;6.77;;
3967;SDS011;9221;42.646;23.380;2023-05-10T07:58:07;15.87;;;5.57;;
3967;SDS011;9221;42.646;23.380;2023-05-10T08:00:32;10.57;;;5.00;;
3967;SDS011;9221;42.646;23.380;2023-05-10T08:02:57;13.90;;;4.47;;
3967;SDS011;9221;42.646;23.380;2023-05-10T08:05:23;14.80;;;5.20;;
3967;SDS011;9221;42.646;23.380;2023-05-10T08:07:49;10.97;;;5.03;;
3967;SDS011;9221;42.646;23.380;2023-05-10T08:10:14;18.93;;;5.00;;
3967;SDS011;9221;42.646;23.380;2023-05-10T08:12:39;11.50;;;4.50;;
3967;SDS011;9221;42.646;23.380;2023-05-10T08:15:05;11.80;;;5.27;;
3967;SDS011;9221;42.646;23.380;2023-05-10T08:17:32;14.53;;;6.17;;
3967;SDS011;9221;42.646;23.380;2023-05-10T08:19:57;13.03;;;5.97;;
3967;SDS011;9221;42.646;23.380;2023-05-10T08:22:22;13.23;;;5.30;;
3967;SDS011;9221;42.646;23.380;2023-05-10T08:24:48;14.50;;;6.40;;
3967;SDS011;9221;42.646;23.380;2023-05-10T08:27:13;11.70;;;5.80;;
3967;SDS011;9221;42.646;23.380;2023-05-10T08:29:39;10.87;;;5.73;;
3967;SDS011;9221;42.646;23.380;2023-05-10T08:32:04;17.43;;;5.63;;
3967;SDS011;9221;42.646;23.380;2023-05-10T08:34:30;9.90;;;4.33;;
3967;SDS011;9221;42.646;23.380;2023-05-10T08:36:56;9.97;;;5.60;;
3967;SDS011;9221;42.646;23.380;2023-05-10T08:39:21;15.90;;;6.43;;
3967;SDS011;9221;42.646;23.380;2023-05-10T08:41:48;14.03;;;6.30;;
3967;SDS011;9221;42.646;23.380;2023-05-10T08:44:16;12.00;;;5.50;;
3967;SDS011;9221;42.646;23.380;2023-05-10T08:46:43;15.80;;;6.60;;
3967;SDS011;9221;42.646;23.380;2023-05-10T08:49:13;48.60;;;7.80;;
3967;SDS011;9221;42.646;23.380;2023-05-10T08:51:43;15.43;;;6.43;;
3967;SDS011;9221;42.646;23.380;2023-05-10T08:54:12;10.43;;;5.23;;
3967;SDS011;9221;42.646;23.380;2023-05-10T08:56:38;11.90;;;5.87;;
3967;SDS011;9221;42.646;23.380;2023-05-10T08:59:03;12.17;;;4.53;;
3967;SDS011;9221;42.646;23.380;2023-05-10T09:01:29;11.60;;;5.80;;
3967;SDS011;9221;42.646;23.380;2023-05-10T09:03:56;10.10;;;4.90;;
3967;SDS011;9221;42.646;23.380;2023-05-10T09:06:23;11.80;;;6.37;;
3967;SDS011;9221;42.646;23.380;2023-05-10T09:08:49;13.93;;;5.50;;
3967;SDS011;9221;42.646;23.380;2023-05-10T09:11:15;11.13;;;5.70;;
3967;SDS011;9221;42.646;23.380;2023-05-10T09:13:42;10.70;;;5.63;;
3967;SDS011;9221;42.646;23.380;2023-05-10T09:16:08;11.90;;;5.80;;
3967;SDS011;9221;42.646;23.380;2023-05-10T09:18:34;8.73;;;4.90;;
3967;SDS011;9221;42.646;23.380;2023-05-10T09:21:00;25.23;;;6.23;;
3967;SDS011;9221;42.646;23.380;2023-05-10T09:23:25;14.37;;;5.20;;
3967;SDS011;9221;42.646;23.380;2023-05-10T09:26:06;15.23;;;6.50;;
3967;SDS011;9221;42.646;23.380;2023-05-10T09:28:33;10.83;;;5.13;;
3967;SDS011;9221;42.646;23.380;2023-05-10T09:31:18;20.97;;;5.93;;
3967;SDS011;9221;42.646;23.380;2023-05-10T09:33:45;12.40;;;5.70;;
3967;SDS011;9221;42.646;23.380;2023-05-10T09:36:12;13.57;;;6.20;;
3967;SDS011;9221;42.646;23.380;2023-05-10T09:38:44;15.93;;;6.40;;
3967;SDS011;9221;42.646;23.380;2023-05-10T09:41:15;14.10;;;6.90;;
3967;SDS011;9221;42.646;23.380;2023-05-10T09:43:42;10.53;;;4.80;;
3967;SDS011;9221;42.646;23.380;2023-05-10T09:46:10;11.00;;;5.47;;
3967;SDS011;9221;42.646;23.380;2023-05-10T09:48:43;10.43;;;5.00;;
3967;SDS011;9221;42.646;23.380;2023-05-10T09:51:09;10.53;;;5.10;;
3967;SDS011;9221;42.646;23.380;2023-05-10T09:53:35;9.77;;;4.67;;
3967;SDS011;9221;42.646;23.380;2023-05-10T09:56:00;19.63;;;5.90;;
3967;SDS011;9221;42.646;23.380;2023-05-10T09:58:26;9.90;;;4.57;;
3967;SDS011;9221;42.646;23.380;2023-05-10T10:00:51;10.93;;;5.70;;
3967;SDS011;9221;42.646;23.380;2023-05-10T10:03:19;10.30;;;5.07;;
3967;SDS011;9221;42.646;23.380;2023-05-10T10:05:46;14.33;;;5.60;;
3967;SDS011;9221;42.646;23.380;2023-05-10T10:08:13;11.20;;;5.43;;
3967;SDS011;9221;42.646;23.380;2023-05-10T10:10:39;6.73;;;4.27;;
3967;SDS011;9221;42.646;23.380;2023-05-10T10:13:06;14.17;;;5.23;;
3967;SDS011;9221;42.646;23.380;2023-05-10T10:15:32;10.90;;;4.90;;
3967;SDS011;9221;42.646;23.380;2023-05-10T10:17:59;8.97;;;4.77;;
3967;SDS011;9221;42.646;23.380;2023-05-10T10:20:25;10.50;;;5.83;;
3967;SDS011;9221;42.646;23.380;2023-05-10T10:22:51;9.03;;;4.63;;
3967;SDS011;9221;42.646;23.380;2023-05-10T10:25:17;9.63;;;4.80;;
3967;SDS011;9221;42.646;23.380;2023-05-10T10:33:01;11.93;;;4.77;;
3967;SDS011;9221;42.646;23.380;2023-05-10T10:35:38;16.67;;;5.77;;
3967;SDS011;9221;42.646;23.380;2023-05-10T10:38:05;9.80;;;4.33;;
3967;SDS011;9221;42.646;23.380;2023-05-10T10:40:33;8.87;;;3.20;;
3967;SDS011;9221;42.646;23.380;2023-05-10T10:46:33;11.97;;;4.53;;
3967;SDS011;9221;42.646;23.380;2023-05-10T10:48:39;11.10;;;4.70;;
3967;SDS011;9221;42.646;23.380;2023-05-10T10:51:06;7.30;;;3.47;;
3967;SDS011;9221;42.646;23.380;2023-05-10T10:53:31;8.00;;;3.87;;
3967;SDS011;9221;42.646;23.380;2023-05-10T10:56:10;7.07;;;3.30;;
3967;SDS011;9221;42.646;23.380;2023-05-10T10:58:39;7.20;;;4.23;;
3967;SDS011;9221;42.646;23.380;2023-05-10T11:04:25;10.87;;;4.60;;
3967;SDS011;9221;42.646;23.380;2023-05-10T11:06:31;7.63;;;4.00;;
3967;SDS011;9221;42.646;23.380;2023-05-10T11:08:58;9.13;;;4.40;;
3967;SDS011;9221;42.646;23.380;2023-05-10T11:11:24;8.97;;;4.17;;
3967;SDS011;9221;42.646;23.380;2023-05-10T11:13:50;8.13;;;3.80;;
3967;SDS011;9221;42.646;23.380;2023-05-10T11:21:18;18.73;;;4.40;;
3967;SDS011;9221;42.646;23.380;2023-05-10T11:26:11;6.30;;;3.67;;
3967;SDS011;9221;42.646;23.380;2023-05-10T11:28:44;9.67;;;4.30;;
3967;SDS011;9221;42.646;23.380;2023-05-10T11:31:10;9.23;;;4.20;;
3967;SDS011;9221;42.646;23.380;2023-05-10T11:33:42;11.90;;;4.33;;
3967;SDS011;9221;42.646;23.380;2023-05-10T11:36:15;14.23;;;5.13;;
3967;SDS011;9221;42.646;23.380;2023-05-10T11:38:42;12.90;;;4.37;;
3967;SDS011;9221;42.646;23.380;2023-05-10T11:41:08;9.77;;;4.60;;
3967;SDS011;9221;42.646;23.380;2023-05-10T11:43:35;9.17;;;4.50;;
3967;SDS011;9221;42.646;23.380;2023-05-10T11:46:03;8.90;;;4.90;;
3967;SDS011;9221;42.646;23.380;2023-05-10T11:48:32;10.67;;;3.67;;
3967;SDS011;9221;42.646;23.380;2023-05-10T11:50:58;9.23;;;4.33;;
3967;SDS011;9221;42.646;23.380;2023-05-10T11:53:26;11.30;;;4.40;;
3967;SDS011;9221;42.646;23.380;2023-05-10T11:55:55;8.07;;;3.67;;
3967;SDS011;9221;42.646;23.380;2023-05-10T11:58:20;11.60;;;4.00;;
3967;SDS011;9221;42.646;23.380;2023-05-10T12:00:47;8.13;;;4.70;;
3967;SDS011;9221;42.646;23.380;2023-05-10T12:03:13;15.37;;;4.60;;
3967;SDS011;9221;42.646;23.380;2023-05-10T12:05:39;11.60;;;4.00;;
3967;SDS011;9221;42.646;23.380;2023-05-10T12:08:12;12.70;;;4.93;;
3967;SDS011;9221;42.646;23.380;2023-05-10T12:10:45;11.60;;;4.63;;
3967;SDS011;9221;42.646;23.380;2023-05-10T12:13:11;8.17;;;4.07;;
3967;SDS011;9221;42.646;23.380;2023-05-10T12:15:39;10.70;;;5.27;;
3967;SDS011;9221;42.646;23.380;2023-05-10T12:18:04;15.00;;;5.43;;
3967;SDS011;9221;42.646;23.380;2023-05-10T12:20:30;9.13;;;4.53;;
3967;SDS011;9221;42.646;23.380;2023-05-10T12:22:56;14.83;;;5.60;;
3967;SDS011;9221;42.646;23.380;2023-05-10T12:25:23;12.33;;;5.20;;
3967;SDS011;9221;42.646;23.380;2023-05-10T12:27:55;10.10;;;4.83;;
3967;SDS011;9221;42.646;23.380;2023-05-10T12:30:22;53.73;;;5.60;;
3967;SDS011;9221;42.646;23.380;2023-05-10T12:32:52;15.63;;;6.30;;
3967;SDS011;9221;42.646;23.380;2023-05-10T12:35:19;12.37;;;4.70;;
3967;SDS011;9221;42.646;23.380;2023-05-10T12:37:49;13.00;;;4.90;;
3967;SDS011;9221;42.646;23.380;2023-05-10T12:40:15;7.73;;;3.90;;
3967;SDS011;9221;42.646;23.380;2023-05-10T12:42:41;7.50;;;4.40;;
3967;SDS011;9221;42.646;23.380;2023-05-10T12:45:07;12.43;;;4.13;;
3967;SDS011;9221;42.646;23.380;2023-05-10T12:47:33;8.17;;;3.83;;
3967;SDS011;9221;42.646;23.380;2023-05-10T12:50:00;7.87;;;3.93;;
3967;SDS011;9221;42.646;23.380;2023-05-10T12:52:26;18.00;;;3.57;;
3967;SDS011;9221;42.646;23.380;2023-05-10T12:54:53;15.93;;;4.17;;
3967;SDS011;9221;42.646;23.380;2023-05-10T12:57:19;7.20;;;3.80;;
3967;SDS011;9221;42.646;23.380;2023-05-10T12:59:45;8.80;;;3.53;;
3967;SDS011;9221;42.646;23.380;2023-05-10T13:02:10;13.07;;;3.10;;
3967;SDS011;9221;42.646;23.380;2023-05-10T13:04:36;6.60;;;3.20;;
3967;SDS011;9221;42.646;23.380;2023-05-10T13:07:05;8.63;;;3.63;;
3967;SDS011;9221;42.646;23.380;2023-05-10T13:09:34;8.00;;;3.97;;
3967;SDS011;9221;42.646;23.380;2023-05-10T13:11:59;5.63;;;3.17;;
3967;SDS011;9221;42.646;23.380;2023-05-10T13:14:25;6.47;;;3.17;;
3967;SDS011;9221;42.646;23.380;2023-05-10T13:16:51;12.20;;;4.13;;
3967;SDS011;9221;42.646;23.380;2023-05-10T13:19:16;13.07;;;4.47;;
3967;SDS011;9221;42.646;23.380;2023-05-10T13:21:42;16.63;;;4.20;;
3967;SDS011;9221;42.646;23.380;2023-05-10T13:24:11;8.60;;;4.70;;
3967;SDS011;9221;42.646;23.380;2023-05-10T13:26:39;9.03;;;4.20;;
3967;SDS011;9221;42.646;23.380;2023-05-10T13:29:05;20.80;;;4.50;;
3967;SDS011;9221;42.646;23.380;2023-05-10T13:31:30;11.87;;;4.30;;
3967;SDS011;9221;42.646;23.380;2023-05-10T13:33:56;13.20;;;4.60;;
3967;SDS011;9221;42.646;23.380;2023-05-10T13:36:21;7.70;;;4.10;;
3967;SDS011;9221;42.646;23.380;2023-05-10T13:38:47;8.20;;;3.90;;
3967;SDS011;9221;42.646;23.380;2023-05-10T13:41:13;9.60;;;4.03;;
3967;SDS011;9221;42.646;23.380;2023-05-10T13:43:38;8.80;;;4.33;;
3967;SDS011;9221;42.646;23.380;2023-05-10T13:46:04;6.93;;;3.93;;
3967;SDS011;9221;42.646;23.380;2023-05-10T13:48:29;7.50;;;3.70;;
3967;SDS011;9221;42.646;23.380;2023-05-10T13:50:55;11.47;;;4.07;;
3967;SDS011;9221;42.646;23.380;2023-05-10T13:53:20;12.50;;;4.40;;
3967;SDS011;9221;42.646;23.380;2023-05-10T13:59:04;7.50;;;3.87;;
3967;SDS011;9221;42.646;23.380;2023-05-10T14:01:29;7.20;;;3.90;;
3967;SDS011;9221;42.646;23.380;2023-05-10T14:03:55;8.67;;;3.53;;
3967;SDS011;9221;42.646;23.380;2023-05-10T14:06:20;12.83;;;4.40;;
3967;SDS011;9221;42.646;23.380;2023-05-10T14:08:46;6.67;;;3.80;;
3967;SDS011;9221;42.646;23.380;2023-05-10T14:11:12;9.90;;;3.50;;
3967;SDS011;9221;42.646;23.380;2023-05-10T14:13:37;8.10;;;4.43;;
3967;SDS011;9221;42.646;23.380;2023-05-10T14:16:03;9.47;;;4.20;;
3967;SDS011;9221;42.646;23.380;2023-05-10T14:18:29;9.90;;;4.73;;
3967;SDS011;9221;42.646;23.380;2023-05-10T14:20:54;9.27;;;4.70;;
3967;SDS011;9221;42.646;23.380;2023-05-10T14:23:21;8.70;;;3.70;;
3967;SDS011;9221;42.646;23.380;2023-05-10T14:25:49;7.70;;;4.10;;
3967;SDS011;9221;42.646;23.380;2023-05-10T14:28:15;8.33;;;4.07;;
3967;SDS011;9221;42.646;23.380;2023-05-10T14:30:42;10.13;;;4.80;;
3967;SDS011;9221;42.646;23.380;2023-05-10T14:33:08;9.70;;;4.20;;
3967;SDS011;9221;42.646;23.380;2023-05-10T14:35:33;8.53;;;4.13;;
3967;SDS011;9221;42.646;23.380;2023-05-10T14:37:59;21.50;;;4.57;;
3967;SDS011;9221;42.646;23.380;2023-05-10T14:40:24;6.87;;;3.93;;
3967;SDS011;9221;42.646;23.380;2023-05-10T14:42:50;11.97;;;4.10;;
3967;SDS011;9221;42.646;23.380;2023-05-10T14:45:17;14.13;;;5.50;;
3967;SDS011;9221;42.646;23.380;2023-05-10T14:47:42;7.53;;;4.10;;
3967;SDS011;9221;42.646;23.380;2023-05-10T14:50:08;10.87;;;4.40;;
3967;SDS011;9221;42.646;23.380;2023-05-10T14:55:55;10.40;;;4.90;;
3967;SDS011;9221;42.646;23.380;2023-05-10T14:58:21;9.07;;;4.73;;
3967;SDS011;9221;42.646;23.380;2023-05-10T15:00:46;11.40;;;4.60;;
3967;SDS011;9221;42.646;23.380;2023-05-10T15:03:12;12.80;;;5.00;;
3967;SDS011;9221;42.646;23.380;2023-05-10T15:05:37;10.93;;;4.53;;
3967;SDS011;9221;42.646;23.380;2023-05-10T15:08:03;10.00;;;4.07;;
3967;SDS011;9221;42.646;23.380;2023-05-10T15:10:29;6.73;;;4.10;;
3967;SDS011;9221;42.646;23.380;2023-05-10T15:12:55;6.57;;;3.80;;
3967;SDS011;9221;42.646;23.380;2023-05-10T15:15:20;8.73;;;4.07;;
3967;SDS011;9221;42.646;23.380;2023-05-10T15:17:45;8.60;;;4.27;;
3967;SDS011;9221;42.646;23.380;2023-05-10T15:20:11;13.13;;;4.27;;
3967;SDS011;9221;42.646;23.380;2023-05-10T15:22:36;10.70;;;4.10;;
3967;SDS011;9221;42.646;23.380;2023-05-10T15:25:03;7.30;;;4.10;;
3967;SDS011;9221;42.646;23.380;2023-05-10T15:27:29;9.13;;;4.10;;
3967;SDS011;9221;42.646;23.380;2023-05-10T15:29:54;7.30;;;4.10;;